sensor_id;sensor_type;location;lat;lon;timestamp;pressure;altitude;pressure_sealevel;temperature;humidity
64211;BME280;73293;48.538;14.354;2024-02-26T00:00:25;92345.33;;;-0.45;97.58
64211;BME280;73293;48.538;14.354;2024-02-26T00:01:32;92342.05;;;-0.44;97.30
64211;BME280;73293;48.538;14.354;2024-02-26T00:02:07;92342.78;;;-0.46;97.46
64211;BME280;73293;48.538;14.354;2024-02-26T00:02:41;92340.16;;;-0.46;97.80
64211;BME280;73293;48.538;14.354;2024-02-26T00:03:15;92339.63;;;-0.49;97.92
64211;BME280;73293;48.538;14.354;2024-02-26T00:03:50;92342.36;;;-0.56;97.76
64211;BME280;73293;48.538;14.354;2024-02-26T00:04:23;92341.52;;;-0.58;97.21
64211;BME280;73293;48.538;14.354;2024-02-26T00:05:11;92339.50;;;-0.59;96.94
64211;BME280;73293;48.538;14.354;2024-02-26T00:05:45;92338.98;;;-0.58;97.02
64211;BME280;73293;48.538;14.354;2024-02-26T00:06:19;92338.29;;;-0.61;97.11
64211;BME280;73293;48.538;14.354;2024-02-26T00:06:53;92338.23;;;-0.65;97.30
64211;BME280;73293;48.538;14.354;2024-02-26T00:07:28;92337.55;;;-0.65;97.23
64211;BME280;73293;48.538;14.354;2024-02-26T00:08:02;92336.02;;;-0.72;98.12
64211;BME280;73293;48.538;14.354;2024-02-26T00:08:53;92337.04;;;-0.74;99.12
64211;BME280;73293;48.538;14.354;2024-02-26T00:09:26;92336.40;;;-0.80;99.08
64211;BME280;73293;48.538;14.354;2024-02-26T00:10:00;92336.45;;;-0.78;98.80
64211;BME280;73293;48.538;14.354;2024-02-26T00:10:34;92336.10;;;-0.78;98.50
64211;BME280;73293;48.538;14.354;2024-02-26T00:11:08;92332.77;;;-0.75;98.22
64211;BME280;73293;48.538;14.354;2024-02-26T00:11:42;92332.12;;;-0.77;98.34
64211;BME280;73293;48.538;14.354;2024-02-26T00:12:33;92331.40;;;-0.80;98.84
64211;BME280;73293;48.538;14.354;2024-02-26T00:13:06;92334.30;;;-0.85;99.56
64211;BME280;73293;48.538;14.354;2024-02-26T00:13:40;92336.21;;;-0.87;100.00
64211;BME280;73293;48.538;14.354;2024-02-26T00:14:14;92334.95;;;-0.87;100.00
64211;BME280;73293;48.538;14.354;2024-02-26T00:14:48;92333.11;;;-0.87;100.00
64211;BME280;73293;48.538;14.354;2024-02-26T00:15:23;92333.65;;;-0.88;100.00
64211;BME280;73293;48.538;14.354;2024-02-26T00:16:14;92331.09;;;-0.88;100.00
64211;BME280;73293;48.538;14.354;2024-02-26T00:16:48;92332.06;;;-0.88;100.00
64211;BME280;73293;48.538;14.354;2024-02-26T00:17:22;92332.43;;;-0.84;100.00
64211;BME280;73293;48.538;14.354;2024-02-26T00:17:56;92330.54;;;-0.85;100.00
64211;BME280;73293;48.538;14.354;2024-02-26T00:18:30;92332.09;;;-0.85;100.00
64211;BME280;73293;48.538;14.354;2024-02-26T00:19:04;92331.37;;;-0.84;99.84
64211;BME280;73293;48.538;14.354;2024-02-26T00:19:56;92329.13;;;-0.84;99.65
64211;BME280;73293;48.538;14.354;2024-02-26T00:20:31;92326.77;;;-0.89;99.23
64211;BME280;73293;48.538;14.354;2024-02-26T00:21:05;92328.40;;;-0.86;98.67
64211;BME280;73293;48.538;14.354;2024-02-26T00:21:41;92328.60;;;-0.90;98.49
64211;BME280;73293;48.538;14.354;2024-02-26T00:22:18;92323.52;;;-0.93;98.50
64211;BME280;73293;48.538;14.354;2024-02-26T00:22:52;92324.55;;;-0.87;98.49
64211;BME280;73293;48.538;14.354;2024-02-26T00:23:40;92324.69;;;-0.80;98.33
64211;BME280;73293;48.538;14.354;2024-02-26T00:24:15;92327.44;;;-0.89;99.08
64211;BME280;73293;48.538;14.354;2024-02-26T00:24:49;92326.05;;;-0.92;99.85
64211;BME280;73293;48.538;14.354;2024-02-26T00:25:23;92327.11;;;-0.91;99.55
64211;BME280;73293;48.538;14.354;2024-02-26T00:25:56;92326.13;;;-0.92;99.76
64211;BME280;73293;48.538;14.354;2024-02-26T00:26:29;92324.59;;;-0.93;99.79
64211;BME280;73293;48.538;14.354;2024-02-26T00:27:23;92324.73;;;-0.87;99.48
64211;BME280;73293;48.538;14.354;2024-02-26T00:27:57;92325.65;;;-0.88;99.32
64211;BME280;73293;48.538;14.354;2024-02-26T00:28:31;92324.87;;;-0.86;99.09
64211;BME280;73293;48.538;14.354;2024-02-26T00:29:04;92322.64;;;-0.87;99.01
64211;BME280;73293;48.538;14.354;2024-02-26T00:29:38;92324.55;;;-0.87;99.02
64211;BME280;73293;48.538;14.354;2024-02-26T00:30:17;92324.20;;;-0.87;98.88
64211;BME280;73293;48.538;14.354;2024-02-26T00:31:05;92320.23;;;-0.84;98.66
64211;BME280;73293;48.538;14.354;2024-02-26T00:31:38;92321.53;;;-0.90;98.48
64211;BME280;73293;48.538;14.354;2024-02-26T00:32:12;92323.64;;;-0.88;98.24
64211;BME280;73293;48.538;14.354;2024-02-26T00:32:46;92326.15;;;-0.89;97.99
64211;BME280;73293;48.538;14.354;2024-02-26T00:33:20;92324.84;;;-0.91;97.71
64211;BME280;73293;48.538;14.354;2024-02-26T00:33:54;92322.36;;;-0.93;97.55
64211;BME280;73293;48.538;14.354;2024-02-26T00:34:46;92326.65;;;-0.91;97.63
64211;BME280;73293;48.538;14.354;2024-02-26T00:35:20;92322.16;;;-0.94;97.63
64211;BME280;73293;48.538;14.354;2024-02-26T00:35:54;92325.92;;;-0.95;97.93
64211;BME280;73293;48.538;14.354;2024-02-26T00:36:28;92325.39;;;-0.94;97.94
64211;BME280;73293;48.538;14.354;2024-02-26T00:37:01;92325.48;;;-0.93;97.95
64211;BME280;73293;48.538;14.354;2024-02-26T00:37:35;92325.56;;;-0.93;98.00
64211;BME280;73293;48.538;14.354;2024-02-26T00:38:28;92320.70;;;-0.90;97.98
64211;BME280;73293;48.538;14.354;2024-02-26T00:39:02;92324.49;;;-0.92;98.07
64211;BME280;73293;48.538;14.354;2024-02-26T00:39:37;92325.41;;;-0.93;97.78
64211;BME280;73293;48.538;14.354;2024-02-26T00:40:11;92322.94;;;-0.95;97.48
64211;BME280;73293;48.538;14.354;2024-02-26T00:40:44;92321.63;;;-0.99;96.96
64211;BME280;73293;48.538;14.354;2024-02-26T00:41:18;92320.89;;;-1.04;96.97
64211;BME280;73293;48.538;14.354;2024-02-26T00:42:14;92318.15;;;-1.08;96.68
64211;BME280;73293;48.538;14.354;2024-02-26T00:42:47;92313.84;;;-1.17;96.76
64211;BME280;73293;48.538;14.354;2024-02-26T00:43:21;92318.59;;;-1.15;97.19
64211;BME280;73293;48.538;14.354;2024-02-26T00:43:55;92316.88;;;-1.19;98.08
64211;BME280;73293;48.538;14.354;2024-02-26T00:44:29;92316.61;;;-1.19;98.09
64211;BME280;73293;48.538;14.354;2024-02-26T00:45:03;92317.22;;;-1.22;97.77
64211;BME280;73293;48.538;14.354;2024-02-26T00:45:50;92309.02;;;-1.28;97.95
64211;BME280;73293;48.538;14.354;2024-02-26T00:46:25;92314.50;;;-1.33;98.74
64211;BME280;73293;48.538;14.354;2024-02-26T00:46:59;92315.39;;;-1.36;99.55
64211;BME280;73293;48.538;14.354;2024-02-26T00:47:33;92316.27;;;-1.36;99.64
64211;BME280;73293;48.538;14.354;2024-02-26T00:48:07;92315.10;;;-1.35;99.34
64211;BME280;73293;48.538;14.354;2024-02-26T00:48:40;92313.55;;;-1.36;99.49
64211;BME280;73293;48.538;14.354;2024-02-26T00:49:27;92312.93;;;-1.34;99.79
64211;BME280;73293;48.538;14.354;2024-02-26T00:50:07;92313.58;;;-1.36;99.98
64211;BME280;73293;48.538;14.354;2024-02-26T00:50:47;92315.96;;;-1.36;100.00
64211;BME280;73293;48.538;14.354;2024-02-26T00:51:21;92313.48;;;-1.34;100.00
64211;BME280;73293;48.538;14.354;2024-02-26T00:51:58;92308.39;;;-1.32;100.00
64211;BME280;73293;48.538;14.354;2024-02-26T00:53:09;92309.08;;;-1.25;100.00
64211;BME280;73293;48.538;14.354;2024-02-26T00:53:43;92305.82;;;-1.28;100.00
64211;BME280;73293;48.538;14.354;2024-02-26T00:54:17;92308.93;;;-1.30;99.94
64211;BME280;73293;48.538;14.354;2024-02-26T00:54:51;92304.30;;;-1.29;99.32
64211;BME280;73293;48.538;14.354;2024-02-26T00:55:24;92305.02;;;-1.29;98.81
64211;BME280;73293;48.538;14.354;2024-02-26T00:55:58;92303.03;;;-1.32;98.63
64211;BME280;73293;48.538;14.354;2024-02-26T00:56:52;92300.80;;;-1.32;98.46
64211;BME280;73293;48.538;14.354;2024-02-26T00:57:26;92291.21;;;-1.39;98.41
64211;BME280;73293;48.538;14.354;2024-02-26T00:57:59;92304.73;;;-1.39;98.80
64211;BME280;73293;48.538;14.354;2024-02-26T00:58:33;92296.73;;;-1.42;98.77
64211;BME280;73293;48.538;14.354;2024-02-26T00:59:07;92297.39;;;-1.41;99.13
64211;BME280;73293;48.538;14.354;2024-02-26T00:59:41;92300.28;;;-1.39;98.88
64211;BME280;73293;48.538;14.354;2024-02-26T01:00:29;92298.56;;;-1.36;99.06
64211;BME280;73293;48.538;14.354;2024-02-26T01:01:03;92297.39;;;-1.39;99.70
64211;BME280;73293;48.538;14.354;2024-02-26T01:01:37;92294.10;;;-1.39;99.97
64211;BME280;73293;48.538;14.354;2024-02-26T01:02:11;92297.50;;;-1.38;99.99
64211;BME280;73293;48.538;14.354;2024-02-26T01:02:45;92297.27;;;-1.37;100.00
64211;BME280;73293;48.538;14.354;2024-02-26T01:03:21;92293.98;;;-1.37;100.00
64211;BME280;73293;48.538;14.354;2024-02-26T01:04:07;92294.17;;;-1.33;100.00
64211;BME280;73293;48.538;14.354;2024-02-26T01:04:41;92292.88;;;-1.39;100.00
64211;BME280;73293;48.538;14.354;2024-02-26T01:05:18;92294.27;;;-1.36;100.00
64211;BME280;73293;48.538;14.354;2024-02-26T01:05:52;92293.00;;;-1.35;100.00
64211;BME280;73293;48.538;14.354;2024-02-26T01:06:30;92292.14;;;-1.34;99.96
64211;BME280;73293;48.538;14.354;2024-02-26T01:07:04;92287.82;;;-1.32;99.67
64211;BME280;73293;48.538;14.354;2024-02-26T01:07:50;92289.64;;;-1.32;99.57
64211;BME280;73293;48.538;14.354;2024-02-26T01:08:24;92288.84;;;-1.31;99.41
64211;BME280;73293;48.538;14.354;2024-02-26T01:08:58;92289.59;;;-1.30;99.41
64211;BME280;73293;48.538;14.354;2024-02-26T01:09:31;92283.44;;;-1.32;99.37
64211;BME280;73293;48.538;14.354;2024-02-26T01:10:06;92286.45;;;-1.30;99.50
64211;BME280;73293;48.538;14.354;2024-02-26T01:10:40;92285.59;;;-1.31;99.27
64211;BME280;73293;48.538;14.354;2024-02-26T01:11:32;92286.13;;;-1.30;98.79
64211;BME280;73293;48.538;14.354;2024-02-26T01:12:06;92286.27;;;-1.34;98.61
64211;BME280;73293;48.538;14.354;2024-02-26T01:12:39;92284.01;;;-1.36;98.54
64211;BME280;73293;48.538;14.354;2024-02-26T01:13:13;92282.60;;;-1.37;98.49
64211;BME280;73293;48.538;14.354;2024-02-26T01:13:47;92281.13;;;-1.37;98.48
64211;BME280;73293;48.538;14.354;2024-02-26T01:14:20;92280.94;;;-1.40;98.50
64211;BME280;73293;48.538;14.354;2024-02-26T01:15:33;92280.08;;;-1.40;98.23
64211;BME280;73293;48.538;14.354;2024-02-26T01:16:06;92279.17;;;-1.43;98.15
64211;BME280;73293;48.538;14.354;2024-02-26T01:16:40;92279.36;;;-1.44;98.18
64211;BME280;73293;48.538;14.354;2024-02-26T01:17:14;92273.82;;;-1.47;98.57
64211;BME280;73293;48.538;14.354;2024-02-26T01:17:47;92274.50;;;-1.49;98.40
64211;BME280;73293;48.538;14.354;2024-02-26T01:18:52;92271.65;;;-1.50;97.93
64211;BME280;73293;48.538;14.354;2024-02-26T01:19:26;92274.14;;;-1.53;97.83
64211;BME280;73293;48.538;14.354;2024-02-26T01:20:00;92274.25;;;-1.58;97.78
64211;BME280;73293;48.538;14.354;2024-02-26T01:20:36;92276.40;;;-1.62;97.61
64211;BME280;73293;48.538;14.354;2024-02-26T01:21:10;92272.84;;;-1.66;97.29
64211;BME280;73293;48.538;14.354;2024-02-26T01:21:43;92274.67;;;-1.75;97.02
64211;BME280;73293;48.538;14.354;2024-02-26T01:22:34;92271.48;;;-1.76;96.44
64211;BME280;73293;48.538;14.354;2024-02-26T01:23:08;92270.92;;;-1.81;96.34
64211;BME280;73293;48.538;14.354;2024-02-26T01:23:41;92272.77;;;-1.79;96.69
64211;BME280;73293;48.538;14.354;2024-02-26T01:24:15;92272.14;;;-1.74;96.95
64211;BME280;73293;48.538;14.354;2024-02-26T01:24:50;92266.79;;;-1.73;97.09
64211;BME280;73293;48.538;14.354;2024-02-26T01:25:24;92269.17;;;-1.71;97.18
64211;BME280;73293;48.538;14.354;2024-02-26T01:26:15;92264.73;;;-1.70;97.23
64211;BME280;73293;48.538;14.354;2024-02-26T01:26:49;92266.98;;;-1.74;97.22
64211;BME280;73293;48.538;14.354;2024-02-26T01:27:23;92264.60;;;-1.74;97.29
64211;BME280;73293;48.538;14.354;2024-02-26T01:28:00;92265.66;;;-1.76;97.39
64211;BME280;73293;48.538;14.354;2024-02-26T01:28:33;92260.02;;;-1.78;97.35
64211;BME280;73293;48.538;14.354;2024-02-26T01:29:08;92266.11;;;-1.79;97.56
64211;BME280;73293;48.538;14.354;2024-02-26T01:29:57;92265.14;;;-1.71;97.87
64211;BME280;73293;48.538;14.354;2024-02-26T01:30:31;92263.48;;;-1.77;98.15
64211;BME280;73293;48.538;14.354;2024-02-26T01:31:05;92262.60;;;-1.80;98.49
64211;BME280;73293;48.538;14.354;2024-02-26T01:31:42;92261.85;;;-1.81;98.61
64211;BME280;73293;48.538;14.354;2024-02-26T01:32:16;92262.33;;;-1.81;98.71
64211;BME280;73293;48.538;14.354;2024-02-26T01:32:50;92260.66;;;-1.79;98.19
64211;BME280;73293;48.538;14.354;2024-02-26T01:33:38;92260.23;;;-1.76;98.42
64211;BME280;73293;48.538;14.354;2024-02-26T01:34:13;92256.38;;;-1.76;98.45
64211;BME280;73293;48.538;14.354;2024-02-26T01:34:48;92249.80;;;-1.78;98.36
64211;BME280;73293;48.538;14.354;2024-02-26T01:35:23;92253.79;;;-1.74;98.59
64211;BME280;73293;48.538;14.354;2024-02-26T01:35:57;92258.08;;;-1.70;98.82
64211;BME280;73293;48.538;14.354;2024-02-26T01:36:30;92257.58;;;-1.68;98.99
64211;BME280;73293;48.538;14.354;2024-02-26T01:37:18;92254.55;;;-1.64;98.95
64211;BME280;73293;48.538;14.354;2024-02-26T01:37:52;92256.86;;;-1.67;99.12
64211;BME280;73293;48.538;14.354;2024-02-26T01:38:25;92252.90;;;-1.62;98.87
64211;BME280;73293;48.538;14.354;2024-02-26T01:38:59;92250.22;;;-1.59;98.57
64211;BME280;73293;48.538;14.354;2024-02-26T01:39:32;92251.62;;;-1.57;98.55
64211;BME280;73293;48.538;14.354;2024-02-26T01:40:06;92253.09;;;-1.58;98.74
64211;BME280;73293;48.538;14.354;2024-02-26T01:40:59;92253.73;;;-1.55;98.75
64211;BME280;73293;48.538;14.354;2024-02-26T01:41:33;92253.91;;;-1.57;98.50
64211;BME280;73293;48.538;14.354;2024-02-26T01:42:07;92248.27;;;-1.60;98.47
64211;BME280;73293;48.538;14.354;2024-02-26T01:42:41;92247.89;;;-1.60;98.42
64211;BME280;73293;48.538;14.354;2024-02-26T01:43:15;92254.15;;;-1.57;98.34
64211;BME280;73293;48.538;14.354;2024-02-26T01:43:48;92258.16;;;-1.57;98.19
64211;BME280;73293;48.538;14.354;2024-02-26T01:44:37;92256.42;;;-1.55;98.12
64211;BME280;73293;48.538;14.354;2024-02-26T01:45:16;92255.44;;;-1.60;98.02
64211;BME280;73293;48.538;14.354;2024-02-26T01:45:58;92257.80;;;-1.57;97.93
64211;BME280;73293;48.538;14.354;2024-02-26T01:46:32;92255.19;;;-1.57;97.96
64211;BME280;73293;48.538;14.354;2024-02-26T01:47:07;92257.56;;;-1.56;97.93
64211;BME280;73293;48.538;14.354;2024-02-26T01:48:18;92255.35;;;-1.53;97.91
64211;BME280;73293;48.538;14.354;2024-02-26T01:48:52;92257.28;;;-1.56;97.89
64211;BME280;73293;48.538;14.354;2024-02-26T01:49:26;92253.90;;;-1.58;97.82
64211;BME280;73293;48.538;14.354;2024-02-26T01:50:00;92253.58;;;-1.59;96.83
64211;BME280;73293;48.538;14.354;2024-02-26T01:50:34;92253.96;;;-1.63;95.93
64211;BME280;73293;48.538;14.354;2024-02-26T01:51:08;92254.29;;;-1.67;95.66
64211;BME280;73293;48.538;14.354;2024-02-26T01:52:00;92251.89;;;-1.65;96.20
64211;BME280;73293;48.538;14.354;2024-02-26T01:52:35;92252.65;;;-1.71;96.44
64211;BME280;73293;48.538;14.354;2024-02-26T01:53:09;92255.41;;;-1.68;96.60
64211;BME280;73293;48.538;14.354;2024-02-26T01:53:44;92255.21;;;-1.69;96.95
64211;BME280;73293;48.538;14.354;2024-02-26T01:54:18;92252.27;;;-1.69;97.18
64211;BME280;73293;48.538;14.354;2024-02-26T01:54:52;92255.16;;;-1.73;97.85
64211;BME280;73293;48.538;14.354;2024-02-26T01:55:52;92256.85;;;-1.66;98.56
64211;BME280;73293;48.538;14.354;2024-02-26T01:56:26;92257.95;;;-1.69;98.44
64211;BME280;73293;48.538;14.354;2024-02-26T01:57:03;92253.94;;;-1.71;98.11
64211;BME280;73293;48.538;14.354;2024-02-26T01:57:37;92252.85;;;-1.71;98.16
64211;BME280;73293;48.538;14.354;2024-02-26T01:58:12;92255.23;;;-1.71;98.04
64211;BME280;73293;48.538;14.354;2024-02-26T01:59:22;92249.77;;;-1.72;99.29
64211;BME280;73293;48.538;14.354;2024-02-26T01:59:56;92251.85;;;-1.75;98.71
64211;BME280;73293;48.538;14.354;2024-02-26T02:00:31;92251.33;;;-1.77;98.28
64211;BME280;73293;48.538;14.354;2024-02-26T02:01:05;92254.58;;;-1.78;98.10
64211;BME280;73293;48.538;14.354;2024-02-26T02:01:40;92252.97;;;-1.79;98.04
64211;BME280;73293;48.538;14.354;2024-02-26T02:02:18;92249.95;;;-1.80;97.93
64211;BME280;73293;48.538;14.354;2024-02-26T02:03:02;92247.48;;;-1.78;97.98
64211;BME280;73293;48.538;14.354;2024-02-26T02:03:37;92250.71;;;-1.80;98.32
64211;BME280;73293;48.538;14.354;2024-02-26T02:04:11;92250.04;;;-1.80;98.67
64211;BME280;73293;48.538;14.354;2024-02-26T02:04:45;92250.16;;;-1.80;98.75
64211;BME280;73293;48.538;14.354;2024-02-26T02:05:18;92248.53;;;-1.79;98.59
64211;BME280;73293;48.538;14.354;2024-02-26T02:05:53;92248.13;;;-1.79;98.54
64211;BME280;73293;48.538;14.354;2024-02-26T02:06:41;92249.38;;;-1.75;98.51
64211;BME280;73293;48.538;14.354;2024-02-26T02:07:14;92255.34;;;-1.77;98.65
64211;BME280;73293;48.538;14.354;2024-02-26T02:07:49;92253.54;;;-1.79;98.85
64211;BME280;73293;48.538;14.354;2024-02-26T02:08:23;92258.67;;;-1.78;99.28
64211;BME280;73293;48.538;14.354;2024-02-26T02:08:56;92256.27;;;-1.77;99.39
64211;BME280;73293;48.538;14.354;2024-02-26T02:09:30;92260.81;;;-1.76;99.60
64211;BME280;73293;48.538;14.354;2024-02-26T02:10:19;92261.46;;;-1.73;99.45
64211;BME280;73293;48.538;14.354;2024-02-26T02:10:56;92259.38;;;-1.78;98.97
64211;BME280;73293;48.538;14.354;2024-02-26T02:11:30;92261.99;;;-1.77;98.69
64211;BME280;73293;48.538;14.354;2024-02-26T02:12:04;92258.34;;;-1.75;98.41
64211;BME280;73293;48.538;14.354;2024-02-26T02:12:43;92258.66;;;-1.72;98.18
64211;BME280;73293;48.538;14.354;2024-02-26T02:13:17;92258.89;;;-1.72;98.19
64211;BME280;73293;48.538;14.354;2024-02-26T02:14:01;92256.55;;;-1.72;98.34
64211;BME280;73293;48.538;14.354;2024-02-26T02:14:35;92256.92;;;-1.74;98.34
64211;BME280;73293;48.538;14.354;2024-02-26T02:15:09;92253.08;;;-1.74;98.48
64211;BME280;73293;48.538;14.354;2024-02-26T02:15:45;92252.09;;;-1.73;98.52
64211;BME280;73293;48.538;14.354;2024-02-26T02:16:18;92252.55;;;-1.71;98.60
64211;BME280;73293;48.538;14.354;2024-02-26T02:16:52;92254.86;;;-1.71;98.67
64211;BME280;73293;48.538;14.354;2024-02-26T02:17:43;92252.54;;;-1.67;98.48
64211;BME280;73293;48.538;14.354;2024-02-26T02:18:17;92253.44;;;-1.70;98.40
64211;BME280;73293;48.538;14.354;2024-02-26T02:18:50;92256.17;;;-1.70;98.33
64211;BME280;73293;48.538;14.354;2024-02-26T02:19:24;92256.64;;;-1.70;98.33
64211;BME280;73293;48.538;14.354;2024-02-26T02:19:58;92255.62;;;-1.70;98.08
64211;BME280;73293;48.538;14.354;2024-02-26T02:20:32;92256.24;;;-1.74;97.88
64211;BME280;73293;48.538;14.354;2024-02-26T02:21:20;92252.60;;;-1.73;97.70
64211;BME280;73293;48.538;14.354;2024-02-26T02:21:54;92260.36;;;-1.73;97.67
64211;BME280;73293;48.538;14.354;2024-02-26T02:22:27;92257.88;;;-1.75;97.47
64211;BME280;73293;48.538;14.354;2024-02-26T02:23:01;92256.73;;;-1.79;97.03
64211;BME280;73293;48.538;14.354;2024-02-26T02:23:35;92260.02;;;-1.79;96.61
64211;BME280;73293;48.538;14.354;2024-02-26T02:24:10;92256.34;;;-1.81;96.36
64211;BME280;73293;48.538;14.354;2024-02-26T02:25:02;92254.95;;;-1.83;96.36
64211;BME280;73293;48.538;14.354;2024-02-26T02:25:39;92260.41;;;-1.83;96.61
64211;BME280;73293;48.538;14.354;2024-02-26T02:26:13;92261.66;;;-1.82;96.78
64211;BME280;73293;48.538;14.354;2024-02-26T02:26:47;92261.27;;;-1.82;96.91
64211;BME280;73293;48.538;14.354;2024-02-26T02:27:20;92257.38;;;-1.82;96.92
64211;BME280;73293;48.538;14.354;2024-02-26T02:27:56;92260.83;;;-1.85;96.70
64211;BME280;73293;48.538;14.354;2024-02-26T02:28:42;92263.45;;;-1.84;96.34
64211;BME280;73293;48.538;14.354;2024-02-26T02:29:16;92256.19;;;-1.91;96.43
64211;BME280;73293;48.538;14.354;2024-02-26T02:29:49;92260.85;;;-1.89;96.56
64211;BME280;73293;48.538;14.354;2024-02-26T02:30:23;92258.23;;;-1.88;96.61
64211;BME280;73293;48.538;14.354;2024-02-26T02:30:59;92257.71;;;-1.88;96.74
64211;BME280;73293;48.538;14.354;2024-02-26T02:31:34;92257.63;;;-1.88;96.82
64211;BME280;73293;48.538;14.354;2024-02-26T02:32:23;92259.73;;;-1.87;97.06
64211;BME280;73293;48.538;14.354;2024-02-26T02:32:58;92259.45;;;-1.90;97.09
64211;BME280;73293;48.538;14.354;2024-02-26T02:33:32;92258.69;;;-1.89;97.20
64211;BME280;73293;48.538;14.354;2024-02-26T02:34:06;92258.61;;;-1.90;97.22
64211;BME280;73293;48.538;14.354;2024-02-26T02:34:40;92259.64;;;-1.90;97.58
64211;BME280;73293;48.538;14.354;2024-02-26T02:35:14;92259.48;;;-1.90;97.99
64211;BME280;73293;48.538;14.354;2024-02-26T02:36:02;92258.70;;;-1.87;98.33
64211;BME280;73293;48.538;14.354;2024-02-26T02:36:47;92257.71;;;-1.88;98.46
64211;BME280;73293;48.538;14.354;2024-02-26T02:37:21;92257.86;;;-1.87;98.43
64211;BME280;73293;48.538;14.354;2024-02-26T02:37:55;92256.19;;;-1.86;98.34
64211;BME280;73293;48.538;14.354;2024-02-26T02:38:29;92253.05;;;-1.86;98.54
64211;BME280;73293;48.538;14.354;2024-02-26T02:39:04;92254.40;;;-1.84;98.70
64211;BME280;73293;48.538;14.354;2024-02-26T02:39:55;92253.42;;;-1.81;99.59
64211;BME280;73293;48.538;14.354;2024-02-26T02:40:31;92250.58;;;-1.88;100.00
64211;BME280;73293;48.538;14.354;2024-02-26T02:41:05;92252.02;;;-1.84;100.00
64211;BME280;73293;48.538;14.354;2024-02-26T02:41:39;92254.56;;;-1.82;99.70
64211;BME280;73293;48.538;14.354;2024-02-26T02:42:12;92259.20;;;-1.82;99.33
64211;BME280;73293;48.538;14.354;2024-02-26T02:42:46;92254.25;;;-1.82;99.24
64211;BME280;73293;48.538;14.354;2024-02-26T02:43:34;92252.13;;;-1.82;99.25
64211;BME280;73293;48.538;14.354;2024-02-26T02:44:07;92256.63;;;-1.87;99.03
64211;BME280;73293;48.538;14.354;2024-02-26T02:44:41;92254.37;;;-1.90;98.80
64211;BME280;73293;48.538;14.354;2024-02-26T02:45:15;92255.45;;;-1.93;98.37
64211;BME280;73293;48.538;14.354;2024-02-26T02:45:49;92255.05;;;-1.95;98.24
64211;BME280;73293;48.538;14.354;2024-02-26T02:46:23;92253.50;;;-1.96;98.10
64211;BME280;73293;48.538;14.354;2024-02-26T02:47:16;92253.17;;;-1.99;97.56
64211;BME280;73293;48.538;14.354;2024-02-26T02:47:50;92253.95;;;-2.05;97.54
64211;BME280;73293;48.538;14.354;2024-02-26T02:48:24;92255.49;;;-2.07;97.67
64211;BME280;73293;48.538;14.354;2024-02-26T02:48:58;92252.96;;;-2.09;97.90
64211;BME280;73293;48.538;14.354;2024-02-26T02:49:31;92248.13;;;-2.10;98.36
64211;BME280;73293;48.538;14.354;2024-02-26T02:50:05;92252.29;;;-2.09;98.20
64211;BME280;73293;48.538;14.354;2024-02-26T02:50:53;92251.44;;;-2.07;98.22
64211;BME280;73293;48.538;14.354;2024-02-26T02:51:27;92249.98;;;-2.09;98.46
64211;BME280;73293;48.538;14.354;2024-02-26T02:52:00;92251.22;;;-2.09;98.51
64211;BME280;73293;48.538;14.354;2024-02-26T02:52:34;92246.53;;;-2.12;98.76
64211;BME280;73293;48.538;14.354;2024-02-26T02:53:09;92252.53;;;-2.10;98.74
64211;BME280;73293;48.538;14.354;2024-02-26T02:53:43;92251.97;;;-2.09;98.50
64211;BME280;73293;48.538;14.354;2024-02-26T02:54:35;92250.09;;;-2.07;98.77
64211;BME280;73293;48.538;14.354;2024-02-26T02:55:14;92244.31;;;-2.12;98.82
64211;BME280;73293;48.538;14.354;2024-02-26T02:55:50;92243.42;;;-2.10;99.06
64211;BME280;73293;48.538;14.354;2024-02-26T02:56:24;92244.25;;;-2.09;99.15
64211;BME280;73293;48.538;14.354;2024-02-26T02:56:58;92241.81;;;-2.12;99.41
64211;BME280;73293;48.538;14.354;2024-02-26T02:57:31;92243.92;;;-2.07;99.55
64211;BME280;73293;48.538;14.354;2024-02-26T02:58:14;92245.70;;;-2.02;99.26
64211;BME280;73293;48.538;14.354;2024-02-26T02:58:49;92241.48;;;-2.05;98.91
64211;BME280;73293;48.538;14.354;2024-02-26T02:59:23;92239.61;;;-2.08;99.31
64211;BME280;73293;48.538;14.354;2024-02-26T02:59:56;92246.63;;;-2.03;99.63
64211;BME280;73293;48.538;14.354;2024-02-26T03:05:46;92251.75;;;-2.29;95.07
64211;BME280;73293;48.538;14.354;2024-02-26T03:06:19;92250.55;;;-2.39;94.76
64211;BME280;73293;48.538;14.354;2024-02-26T03:06:54;92250.65;;;-2.42;95.01
64211;BME280;73293;48.538;14.354;2024-02-26T03:07:29;92248.89;;;-2.45;95.29
64211;BME280;73293;48.538;14.354;2024-02-26T03:08:02;92248.08;;;-2.43;95.49
64211;BME280;73293;48.538;14.354;2024-02-26T03:08:36;92247.41;;;-2.47;95.81
64211;BME280;73293;48.538;14.354;2024-02-26T03:09:28;92246.55;;;-2.51;96.51
64211;BME280;73293;48.538;14.354;2024-02-26T03:10:02;92246.23;;;-2.56;97.43
64211;BME280;73293;48.538;14.354;2024-02-26T03:10:36;92249.30;;;-2.55;97.34
64211;BME280;73293;48.538;14.354;2024-02-26T03:11:12;92249.11;;;-2.55;97.35
64211;BME280;73293;48.538;14.354;2024-02-26T03:11:46;92248.80;;;-2.51;97.16
64211;BME280;73293;48.538;14.354;2024-02-26T03:12:20;92249.23;;;-2.48;97.21
64211;BME280;73293;48.538;14.354;2024-02-26T03:13:08;92250.25;;;-2.49;97.90
64211;BME280;73293;48.538;14.354;2024-02-26T03:13:42;92248.68;;;-2.52;98.05
64211;BME280;73293;48.538;14.354;2024-02-26T03:14:16;92250.02;;;-2.53;97.97
64211;BME280;73293;48.538;14.354;2024-02-26T03:14:51;92253.33;;;-2.53;98.20
64211;BME280;73293;48.538;14.354;2024-02-26T03:15:29;92247.34;;;-2.52;98.11
64211;BME280;73293;48.538;14.354;2024-02-26T03:16:06;92249.23;;;-2.51;98.00
64211;BME280;73293;48.538;14.354;2024-02-26T03:16:55;92251.11;;;-2.47;98.51
64211;BME280;73293;48.538;14.354;2024-02-26T03:17:29;92248.92;;;-2.47;98.52
64211;BME280;73293;48.538;14.354;2024-02-26T03:18:03;92244.33;;;-2.46;98.63
64211;BME280;73293;48.538;14.354;2024-02-26T03:18:39;92243.73;;;-2.44;98.71
64211;BME280;73293;48.538;14.354;2024-02-26T03:19:14;92244.58;;;-2.44;98.60
64211;BME280;73293;48.538;14.354;2024-02-26T03:19:49;92244.80;;;-2.44;98.46
64211;BME280;73293;48.538;14.354;2024-02-26T03:20:35;92247.57;;;-2.42;98.18